createdAt,value
2022-11-20T00:01:16.268Z,28.33
2022-11-20T00:04:17.953Z,26.67
2022-11-20T00:07:19.646Z,27.52
2022-11-20T00:10:21.386Z,26.67
2022-11-20T00:13:23.058Z,31.73
2022-11-20T00:16:26.670Z,26.05
2022-11-20T00:19:28.461Z,27.50
2022-11-20T00:22:30.051Z,27.65
2022-11-20T00:25:31.770Z,26.27
2022-11-20T00:28:33.674Z,32.70
2022-11-20T00:31:36.051Z,29.55
2022-11-20T00:34:37.626Z,29.20
2022-11-20T00:37:39.240Z,28.35
2022-11-20T00:40:40.827Z,29.17
2022-11-20T00:43:43.296Z,27.27
2022-11-20T00:46:44.902Z,29.92
2022-11-20T00:49:46.560Z,33.38
2022-11-20T00:52:48.220Z,33.25
2022-11-20T00:56:06.880Z,31.17
2022-11-20T00:59:10.265Z,32.80
2022-11-20T01:02:11.860Z,30.63
2022-11-20T01:05:13.726Z,31.35
2022-11-20T01:08:15.553Z,30.42
2022-11-20T01:11:20.372Z,30.77
2022-11-20T01:14:21.994Z,32.53
2022-11-20T01:17:24.046Z,31.67
2022-11-20T01:20:25.641Z,33.90
2022-11-20T01:23:27.211Z,28.60
2022-11-20T01:26:32.417Z,33.73
2022-11-20T01:29:34.175Z,31.97
2022-11-20T01:32:35.764Z,30.55
2022-11-20T01:35:37.382Z,32.72
2022-11-20T01:38:39.279Z,28.65
2022-11-20T01:41:59.921Z,28.30
2022-11-20T01:45:02.096Z,34.17
2022-11-20T01:48:04.312Z,31.73
2022-11-20T01:51:12.162Z,33.50
2022-11-20T01:54:20.240Z,33.00
2022-11-20T01:57:25.179Z,28.07
2022-11-20T02:00:26.879Z,34.60
2022-11-20T02:03:29.086Z,36.65
2022-11-20T02:06:36.164Z,31.38
2022-11-20T02:09:37.776Z,34.35
2022-11-20T02:12:58.119Z,30.77
2022-11-20T02:16:00.588Z,31.80
2022-11-20T02:19:04.886Z,29.83
2022-11-20T02:22:12.969Z,29.52
2022-11-20T02:25:15.511Z,25.75
2022-11-20T02:28:19.267Z,30.07
2022-11-20T02:31:21.251Z,33.90
2022-11-20T02:34:23.026Z,33.83
2022-11-20T02:37:31.610Z,28.58
2022-11-20T02:40:33.381Z,29.65
2022-11-20T02:43:35.190Z,30.73
2022-11-20T02:46:36.843Z,30.43
2022-11-20T02:49:38.476Z,28.35
2022-11-20T02:52:40.146Z,30.45
2022-11-20T02:55:41.878Z,29.52
2022-11-20T02:58:43.603Z,28.97
2022-11-20T03:01:45.398Z,30.60
2022-11-20T03:04:47.291Z,28.50
2022-11-20T03:07:48.935Z,29.02
2022-11-20T03:10:50.610Z,27.75
2022-11-20T03:13:52.248Z,27.27
2022-11-20T03:16:53.848Z,26.50
2022-11-20T03:19:55.410Z,30.65
2022-11-20T03:22:57.029Z,28.45
2022-11-20T03:26:20.058Z,27.48
2022-11-20T03:29:21.792Z,25.60
2022-11-20T03:32:23.607Z,28.33
2022-11-20T03:35:25.529Z,26.63
2022-11-20T03:38:30.444Z,28.75
2022-11-20T03:41:36.812Z,28.90
2022-11-20T03:44:38.412Z,27.37
2022-11-20T03:47:40.034Z,25.53
2022-11-20T03:50:41.624Z,26.73
2022-11-20T03:53:45.469Z,28.80
2022-11-20T03:56:47.097Z,30.25
2022-11-20T03:59:48.835Z,27.10
2022-11-20T04:02:50.413Z,26.43
2022-11-20T04:05:51.977Z,24.35
2022-11-20T04:08:59.344Z,24.45
2022-11-20T04:12:01.308Z,28.45
2022-11-20T04:15:03.136Z,27.77
2022-11-20T04:18:04.907Z,26.30
2022-11-20T04:21:07.599Z,27.77
2022-11-20T04:24:09.435Z,24.52
2022-11-20T04:27:11.073Z,26.50
2022-11-20T04:30:13.240Z,24.60
2022-11-20T04:33:14.936Z,29.13
2022-11-20T04:36:19.030Z,25.08
2022-11-20T04:39:20.996Z,21.50
2022-11-20T04:42:31.425Z,26.23
2022-11-20T04:45:33.079Z,26.20
2022-11-20T04:48:35.783Z,25.53
2022-11-20T04:51:37.419Z,24.15
2022-11-20T04:54:39.139Z,27.85
2022-11-20T04:57:40.795Z,30.15
2022-11-20T05:00:42.557Z,24.87
2022-11-20T05:03:45.226Z,24.67
2022-11-20T05:06:46.935Z,27.92
2022-11-20T05:09:48.554Z,22.15
2022-11-20T05:12:50.195Z,23.65
2022-11-20T05:15:51.961Z,28.07
2022-11-20T05:18:55.322Z,26.53
2022-11-20T05:21:57.404Z,25.50
2022-11-20T05:24:59.005Z,24.67
2022-11-20T05:28:00.655Z,25.38
2022-11-20T05:31:10.607Z,21.77
2022-11-20T05:34:12.256Z,25.63
2022-11-20T05:37:13.921Z,24.33
2022-11-20T05:40:15.580Z,22.90
2022-11-20T05:43:17.175Z,26.92
2022-11-20T05:46:26.399Z,21.60
2022-11-20T05:49:30.476Z,27.57
2022-11-20T05:52:32.075Z,26.08
2022-11-20T05:55:34.369Z,25.63
2022-11-20T05:58:37.472Z,26.40
2022-11-20T06:01:39.076Z,27.37
2022-11-20T06:04:40.660Z,25.73
2022-11-20T06:07:42.504Z,28.00
2022-11-20T06:10:44.182Z,28.38
2022-11-20T06:13:47.027Z,24.50
2022-11-20T06:16:48.670Z,28.67
2022-11-20T06:19:50.303Z,29.87
2022-11-20T06:22:51.873Z,22.58
2022-11-20T06:25:53.479Z,21.10
2022-11-20T06:28:57.126Z,29.55
2022-11-20T06:31:58.783Z,25.17
2022-11-20T06:35:00.484Z,29.77
2022-11-20T06:38:02.042Z,26.90
2022-11-20T06:41:04.975Z,28.83
2022-11-20T06:44:06.700Z,23.55
2022-11-20T06:47:08.444Z,28.80
2022-11-20T06:50:10.343Z,23.10
2022-11-20T06:53:11.935Z,22.20
2022-11-20T06:56:13.740Z,26.38
2022-11-20T06:59:15.476Z,29.25
2022-11-20T07:02:17.083Z,26.83
2022-11-20T07:05:18.944Z,26.23
2022-11-20T07:08:20.644Z,24.60
2022-11-20T07:11:22.418Z,22.92
2022-11-20T07:14:24.056Z,24.35
2022-11-20T07:17:25.676Z,26.27
2022-11-20T07:20:27.694Z,23.30
2022-11-20T07:23:29.423Z,24.02
2022-11-20T07:26:31.101Z,31.67
2022-11-20T07:29:32.701Z,29.55
2022-11-20T07:32:34.321Z,27.67
2022-11-20T07:35:36.879Z,31.07
2022-11-20T07:38:39.261Z,29.40
2022-11-20T07:41:40.895Z,30.17
2022-11-20T07:44:42.619Z,33.25
2022-11-20T07:47:44.623Z,30.10
2022-11-20T07:50:46.668Z,27.63
2022-11-20T07:53:48.276Z,25.15
2022-11-20T07:56:50.343Z,28.55
2022-11-20T07:59:52.029Z,25.85
2022-11-20T08:02:53.702Z,27.33
2022-11-20T08:05:55.401Z,26.03
2022-11-20T08:08:57.290Z,21.83
2022-11-20T08:12:17.684Z,24.23
2022-11-20T08:15:19.356Z,26.20
2022-11-20T08:18:31.062Z,25.30
2022-11-20T08:21:38.219Z,26.13
2022-11-20T08:24:40.161Z,21.50
2022-11-20T08:27:41.792Z,25.50
2022-11-20T08:30:43.461Z,25.10
2022-11-20T08:33:45.114Z,23.67
2022-11-20T08:36:46.798Z,23.73
2022-11-20T08:39:48.434Z,24.63
2022-11-20T08:42:51.363Z,19.30
2022-11-20T08:45:52.964Z,25.08
2022-11-20T08:48:54.807Z,24.93
2022-11-20T08:51:56.412Z,20.20
2022-11-20T08:54:58.028Z,25.15
2022-11-20T08:58:03.772Z,19.88
2022-11-20T09:01:05.713Z,20.20
2022-11-20T09:04:08.489Z,21.10
2022-11-20T09:07:10.107Z,22.20
2022-11-20T09:10:27.085Z,19.75
2022-11-20T09:13:29.898Z,22.15
2022-11-20T09:16:31.538Z,23.25
2022-11-20T09:22:55.213Z,19.63
2022-11-20T09:26:00.540Z,20.73
2022-11-20T09:29:03.029Z,22.50
2022-11-20T09:32:05.069Z,22.98
2022-11-20T09:35:06.989Z,23.63
2022-11-20T09:38:09.067Z,26.90
2022-11-20T09:41:33.215Z,20.35
2022-11-20T09:44:44.941Z,20.40
2022-11-20T09:48:01.555Z,18.77
2022-11-20T09:51:23.217Z,20.83
2022-11-20T09:54:35.428Z,19.80
2022-11-20T09:57:40.186Z,18.75
2022-11-20T10:00:42.344Z,23.10
2022-11-20T10:04:11.398Z,19.60
2022-11-20T10:07:35.537Z,27.13
2022-11-20T10:10:46.498Z,27.27
2022-11-20T10:14:14.448Z,22.13
2022-11-20T10:17:27.843Z,20.70
2022-11-20T10:20:47.369Z,22.08
2022-11-20T10:24:12.742Z,25.03
2022-11-20T10:27:26.611Z,22.03
2022-11-20T10:30:28.648Z,25.80
2022-11-20T10:34:05.029Z,23.05
2022-11-20T10:37:14.706Z,24.48
2022-11-20T10:40:26.219Z,22.03
2022-11-20T10:43:37.192Z,28.13
2022-11-20T10:46:45.224Z,23.33
2022-11-20T10:49:56.389Z,20.35
2022-11-20T10:53:36.859Z,24.10
2022-11-20T10:56:50.293Z,26.03
2022-11-20T10:59:54.996Z,21.20
2022-11-20T11:03:03.139Z,20.80
2022-11-20T11:06:26.180Z,19.65
2022-11-20T11:09:36.720Z,22.33
2022-11-20T11:12:45.881Z,29.43
2022-11-20T11:15:47.553Z,23.63
2022-11-20T11:18:49.338Z,21.67
2022-11-20T11:21:55.821Z,22.52
2022-11-20T11:24:58.003Z,24.08
2022-11-20T11:28:03.876Z,26.47
2022-11-20T11:31:05.522Z,26.67
2022-11-20T11:34:08.701Z,23.63
2022-11-20T11:37:22.568Z,21.80
2022-11-20T11:40:28.019Z,23.10
2022-11-20T11:43:52.003Z,22.97
2022-11-20T11:46:57.621Z,18.87
2022-11-20T11:50:11.299Z,21.55
2022-11-20T11:53:18.739Z,20.70
2022-11-20T11:56:21.814Z,23.95
2022-11-20T11:59:32.962Z,18.87
2022-11-20T12:02:44.166Z,20.13
2022-11-20T12:05:52.410Z,17.83
2022-11-20T12:09:02.398Z,19.92
2022-11-20T12:12:11.419Z,18.08
2022-11-20T12:15:23.695Z,18.37
2022-11-20T12:18:25.602Z,24.57
2022-11-20T12:21:35.003Z,25.15
2022-11-20T12:24:36.621Z,20.92
2022-11-20T12:27:58.721Z,23.05
2022-11-20T12:31:28.813Z,21.70
2022-11-20T12:34:51.870Z,20.20
2022-11-20T12:38:24.363Z,20.65
2022-11-20T12:42:02.452Z,16.73
2022-11-20T12:45:25.904Z,21.35
2022-11-20T12:48:53.540Z,19.73
2022-11-20T12:51:58.488Z,17.30
2022-11-20T12:55:03.396Z,21.23
2022-11-20T12:58:26.564Z,21.50
2022-11-20T13:01:48.751Z,21.33
2022-11-20T13:05:20.749Z,23.20
2022-11-20T13:08:25.636Z,20.97
2022-11-20T13:11:48.555Z,30.60
2022-11-20T13:15:05.046Z,25.98
2022-11-20T13:18:11.027Z,21.83
2022-11-20T13:21:17.935Z,21.77
2022-11-20T13:24:19.828Z,26.63
2022-11-20T13:27:24.187Z,23.85
2022-11-20T13:30:27.742Z,21.23
2022-11-20T13:33:32.951Z,23.95
2022-11-20T13:36:36.032Z,19.33
2022-11-20T13:39:38.405Z,21.10
2022-11-20T13:42:46.071Z,20.85
2022-11-20T13:46:08.531Z,23.00
2022-11-20T13:49:18.561Z,19.02
2022-11-20T13:52:47.432Z,18.80
2022-11-20T13:55:59.978Z,17.67
2022-11-20T13:59:29.516Z,19.35
2022-11-20T14:02:31.626Z,19.33
2022-11-20T14:05:49.504Z,17.55
2022-11-20T14:08:52.669Z,20.40
2022-11-20T14:11:56.058Z,17.43
2022-11-20T14:14:58.417Z,17.90
2022-11-20T14:18:11.830Z,21.60
2022-11-20T14:21:26.106Z,19.38
2022-11-20T14:24:28.053Z,18.43
2022-11-20T14:27:30.609Z,21.17
2022-11-20T14:30:45.120Z,17.17
2022-11-20T14:33:47.904Z,18.23
2022-11-20T14:36:54.617Z,17.80
2022-11-20T14:39:59.757Z,17.70
2022-11-20T14:43:01.641Z,21.73
2022-11-20T14:46:09.276Z,19.27
2022-11-20T14:49:12.549Z,24.15
2022-11-20T14:52:17.830Z,28.85
2022-11-20T14:55:35.243Z,32.13
2022-11-20T14:58:37.140Z,22.77
2022-11-20T15:01:38.947Z,23.15
2022-11-20T15:04:57.638Z,24.85
2022-11-20T15:08:10.330Z,22.63
2022-11-20T15:11:20.726Z,23.37
2022-11-20T15:14:22.956Z,24.37
2022-11-20T15:17:25.153Z,22.00
2022-11-20T15:20:31.019Z,21.83
2022-11-20T15:23:32.915Z,23.70
2022-11-20T15:26:35.691Z,21.23
2022-11-20T15:29:37.747Z,20.23
2022-11-20T15:32:43.395Z,21.77
2022-11-20T15:35:45.533Z,20.15
2022-11-20T15:38:47.653Z,21.33
2022-11-20T15:41:49.436Z,20.23
2022-11-20T15:44:51.320Z,23.87
2022-11-20T15:47:52.936Z,21.48
2022-11-20T15:51:08.381Z,38.38
2022-11-20T15:54:12.673Z,38.28
2022-11-20T15:57:15.049Z,38.33
2022-11-20T16:00:23.231Z,32.90
2022-11-20T16:03:25.812Z,30.60
2022-11-20T16:06:27.796Z,28.90
2022-11-20T16:09:29.722Z,30.02
2022-11-20T16:12:50.147Z,26.17
2022-11-20T16:15:57.360Z,24.90
2022-11-20T16:18:59.610Z,27.20
2022-11-20T16:22:04.504Z,24.65
2022-11-20T16:25:06.579Z,21.25
2022-11-20T16:28:08.817Z,24.37
2022-11-20T16:31:17.829Z,24.03
2022-11-20T16:34:19.939Z,23.73
2022-11-20T16:37:21.760Z,21.40
2022-11-20T16:40:25.026Z,22.45
2022-11-20T16:43:26.899Z,23.33
2022-11-20T16:46:32.494Z,21.53
2022-11-20T16:49:34.358Z,26.98
2022-11-20T16:52:36.498Z,25.25
2022-11-20T16:55:38.338Z,23.25
2022-11-20T16:58:40.184Z,25.67
2022-11-20T17:01:43.896Z,25.73
2022-11-20T17:04:45.899Z,29.30
2022-11-20T17:07:47.538Z,25.63
2022-11-20T17:10:49.374Z,25.33
2022-11-20T17:13:51.240Z,27.97
2022-11-20T17:16:52.867Z,26.63
2022-11-20T17:19:54.823Z,27.85
2022-11-20T17:22:56.923Z,26.25
2022-11-20T17:26:08.104Z,27.80
2022-11-20T17:29:16.219Z,24.20
2022-11-20T17:32:19.034Z,28.33
2022-11-20T17:35:20.915Z,31.02
2022-11-20T17:38:24.116Z,30.25
2022-11-20T17:41:28.449Z,27.15
2022-11-20T17:44:30.330Z,27.33
2022-11-20T17:47:32.002Z,28.57
2022-11-20T17:50:33.901Z,28.05
2022-11-20T17:53:39.187Z,26.83
2022-11-20T17:56:59.696Z,27.85
2022-11-20T18:00:01.633Z,31.43
2022-11-20T18:03:04.981Z,30.60
2022-11-20T18:06:14.365Z,34.03
2022-11-20T18:09:16.562Z,31.75
2022-11-20T18:12:18.439Z,29.88
2022-11-20T18:15:20.459Z,29.73
2022-11-20T18:18:22.259Z,29.50
2022-11-20T18:21:26.556Z,32.85
2022-11-20T18:24:28.776Z,32.17
2022-11-20T18:27:30.828Z,31.50
2022-11-20T18:30:32.784Z,28.47
2022-11-20T18:33:35.516Z,33.40
2022-11-20T18:36:37.210Z,30.35
2022-11-20T18:39:39.620Z,32.33
2022-11-20T18:43:00.104Z,30.25
2022-11-20T18:46:03.842Z,29.13
2022-11-20T18:49:05.472Z,28.07
2022-11-20T18:52:08.121Z,32.13
2022-11-20T18:55:10.381Z,29.83
2022-11-20T18:58:12.275Z,27.60
2022-11-20T19:01:14.490Z,32.60
2022-11-20T19:04:17.985Z,33.90
2022-11-20T19:07:22.472Z,33.42
2022-11-20T19:10:26.869Z,30.65
2022-11-20T19:13:31.211Z,36.47
2022-11-20T19:16:33.079Z,35.13
2022-11-20T19:19:38.513Z,29.03
2022-11-20T19:22:40.397Z,32.22
2022-11-20T19:25:42.275Z,33.35
2022-11-20T19:28:44.724Z,30.10
2022-11-20T19:31:49.110Z,33.07
2022-11-20T19:34:50.975Z,27.33
2022-11-20T19:37:52.883Z,31.58
2022-11-20T19:40:55.254Z,32.50
2022-11-20T19:44:05.454Z,29.52
2022-11-20T19:47:12.999Z,32.10
2022-11-20T19:50:18.890Z,31.90
2022-11-20T19:53:21.860Z,32.40
2022-11-20T19:56:24.729Z,30.20
2022-11-20T19:59:26.987Z,31.95
2022-11-20T20:02:30.656Z,31.97
2022-11-20T20:05:34.157Z,37.63
2022-11-20T20:08:36.979Z,35.22
2022-11-20T20:11:39.867Z,36.28
2022-11-20T20:14:41.736Z,33.20
2022-11-20T20:17:43.600Z,37.70
2022-11-20T20:20:45.516Z,36.20
2022-11-20T20:23:53.513Z,36.60
2022-11-20T20:26:58.199Z,36.83
2022-11-20T20:30:00.433Z,38.35
2022-11-20T20:33:02.375Z,35.53
2022-11-20T20:36:05.235Z,38.57
2022-11-20T20:39:07.437Z,34.38
2022-11-20T20:42:09.064Z,31.40
2022-11-20T20:45:11.216Z,35.08
2022-11-20T20:48:13.737Z,32.80
2022-11-20T20:51:16.496Z,36.27
2022-11-20T20:54:18.292Z,32.53
2022-11-20T20:57:21.046Z,34.63
2022-11-20T21:00:23.333Z,39.55
2022-11-20T21:03:27.331Z,36.80
2022-11-20T21:06:32.466Z,39.60
2022-11-20T21:09:34.431Z,40.45
2022-11-20T21:12:36.107Z,41.28
2022-11-20T21:15:41.706Z,37.90
2022-11-20T21:18:43.380Z,37.60
2022-11-20T21:22:00.410Z,38.80
2022-11-20T21:25:02.020Z,39.83
2022-11-20T21:28:03.719Z,39.67
2022-11-20T21:31:10.909Z,39.50
2022-11-20T21:34:13.492Z,39.03
2022-11-20T21:37:15.267Z,37.57
2022-11-20T21:40:17.166Z,44.25
2022-11-20T21:43:18.771Z,36.15
2022-11-20T21:46:20.382Z,38.38
2022-11-20T21:49:22.466Z,44.03
2022-11-20T21:52:24.339Z,42.20
2022-11-20T21:55:25.990Z,43.10
2022-11-20T21:58:28.232Z,40.83
2022-11-20T22:01:30.958Z,41.50
2022-11-20T22:04:32.661Z,46.33
2022-11-20T22:07:34.272Z,35.13
2022-11-20T22:10:36.004Z,39.10
2022-11-20T22:13:56.258Z,37.75
2022-11-20T22:16:57.843Z,37.03
2022-11-20T22:19:59.446Z,41.00
2022-11-20T22:23:01.087Z,40.10
2022-11-20T22:26:05.519Z,40.03
2022-11-20T22:29:12.113Z,38.28
2022-11-20T22:32:13.734Z,42.90
2022-11-20T22:35:15.384Z,43.63
2022-11-20T22:38:17.065Z,42.77
2022-11-20T22:41:21.224Z,40.38
2022-11-20T22:44:23.148Z,40.53
2022-11-20T22:47:24.989Z,39.67
2022-11-20T22:50:26.824Z,41.20
2022-11-20T22:53:28.413Z,39.77
2022-11-20T22:56:32.237Z,38.83
2022-11-20T22:59:33.873Z,41.13
2022-11-20T23:02:35.487Z,46.22
2022-11-20T23:05:37.098Z,43.47
2022-11-20T23:08:40.535Z,39.57
2022-11-20T23:11:42.253Z,40.53
2022-11-20T23:14:43.890Z,45.33
2022-11-20T23:17:45.511Z,42.00
2022-11-20T23:20:47.113Z,42.07
2022-11-20T23:23:54.263Z,41.97
2022-11-20T23:26:55.880Z,42.83
2022-11-20T23:29:59.025Z,40.85
2022-11-20T23:33:00.656Z,42.35
2022-11-20T23:36:02.344Z,42.13
2022-11-20T23:39:04.140Z,42.20
2022-11-20T23:42:05.840Z,41.90
2022-11-20T23:45:08.014Z,41.13
2022-11-20T23:48:09.850Z,41.33
2022-11-20T23:51:11.605Z,42.00
2022-11-20T23:54:13.219Z,41.77
2022-11-20T23:57:14.852Z,40.63
